createdAt,value
2022-08-27T00:02:00.849Z,19.20
2022-08-27T00:04:27.411Z,19.19
2022-08-27T00:06:53.971Z,19.17
2022-08-27T00:09:26.580Z,19.17
2022-08-27T00:11:53.575Z,19.20
2022-08-27T00:14:19.964Z,19.23
2022-08-27T00:16:46.346Z,19.25
2022-08-27T00:19:12.768Z,19.26
2022-08-27T00:21:39.130Z,19.17
2022-08-27T00:24:05.531Z,19.15
2022-08-27T00:26:32.436Z,19.16
2022-08-27T00:28:58.842Z,19.14
2022-08-27T00:31:27.349Z,19.14
2022-08-27T00:33:54.082Z,19.18
2022-08-27T00:36:20.571Z,19.17
2022-08-27T00:38:46.927Z,19.17
2022-08-27T00:41:13.986Z,19.15
2022-08-27T00:43:50.642Z,19.19
2022-08-27T00:46:23.082Z,19.19
2022-08-27T00:48:51.116Z,19.19
2022-08-27T00:51:17.475Z,19.12
2022-08-27T00:53:44.071Z,19.16
2022-08-27T00:56:12.060Z,19.18
2022-08-27T00:58:40.188Z,19.13
2022-08-27T01:01:07.926Z,19.07
2022-08-27T01:03:34.866Z,19.07
2022-08-27T01:06:02.326Z,19.01
2022-08-27T01:08:30.949Z,19.02
2022-08-27T01:10:58.413Z,19.00
2022-08-27T01:13:44.166Z,18.99
2022-08-27T01:16:12.278Z,19.05
2022-08-27T01:18:39.549Z,19.01
2022-08-27T01:21:14.228Z,18.96
2022-08-27T01:23:48.447Z,18.95
2022-08-27T01:26:15.870Z,18.97
2022-08-27T01:28:42.867Z,18.91
2022-08-27T01:31:10.709Z,18.86
2022-08-27T01:33:37.535Z,18.82
2022-08-27T01:36:04.473Z,18.84
2022-08-27T01:38:31.612Z,18.90
2022-08-27T01:40:59.068Z,18.88
2022-08-27T01:43:27.345Z,18.85
2022-08-27T01:45:53.682Z,18.83
2022-08-27T01:48:20.980Z,18.83
2022-08-27T01:50:48.220Z,18.80
2022-08-27T01:53:16.657Z,18.79
2022-08-27T01:55:47.700Z,18.78
2022-08-27T01:58:15.556Z,18.74
2022-08-27T02:00:42.835Z,18.72
2022-08-27T02:03:09.974Z,18.73
2022-08-27T02:05:39.500Z,18.73
2022-08-27T02:08:11.914Z,18.65
2022-08-27T02:10:39.545Z,18.64
2022-08-27T02:13:07.050Z,18.63
2022-08-27T02:15:34.753Z,18.59
2022-08-27T02:18:01.207Z,18.66
2022-08-27T02:20:27.947Z,18.69
2022-08-27T02:22:55.838Z,18.64
2022-08-27T02:25:22.194Z,18.70
2022-08-27T02:27:49.165Z,18.58
2022-08-27T02:30:18.668Z,18.52
2022-08-27T02:32:47.176Z,18.46
2022-08-27T02:35:14.593Z,18.43
2022-08-27T02:37:41.784Z,18.42
2022-08-27T02:40:09.249Z,18.48
2022-08-27T02:42:35.631Z,18.50
2022-08-27T02:45:01.979Z,18.55
2022-08-27T02:47:28.324Z,18.56
2022-08-27T02:49:54.714Z,18.48
2022-08-27T02:52:25.016Z,18.46
2022-08-27T02:54:51.608Z,18.47
2022-08-27T02:57:18.081Z,18.43
2022-08-27T02:59:45.161Z,18.42
2022-08-27T03:02:11.596Z,18.40
2022-08-27T03:04:38.336Z,18.41
2022-08-27T03:07:04.673Z,18.34
2022-08-27T03:09:31.026Z,18.34
2022-08-27T03:11:57.575Z,18.29
2022-08-27T03:14:23.937Z,18.32
2022-08-27T03:16:50.321Z,18.33
2022-08-27T03:19:21.522Z,18.32
2022-08-27T03:21:52.119Z,18.26
2022-08-27T03:24:21.063Z,18.22
2022-08-27T03:26:52.779Z,18.23
2022-08-27T03:29:20.353Z,18.27
2022-08-27T03:31:46.837Z,18.25
2022-08-27T03:34:13.439Z,18.36
2022-08-27T03:36:39.744Z,18.29
2022-08-27T03:39:06.535Z,18.26
2022-08-27T03:41:47.246Z,18.26
2022-08-27T03:44:21.266Z,18.31
2022-08-27T03:46:48.757Z,18.34
2022-08-27T03:49:15.243Z,18.39
2022-08-27T03:51:47.071Z,18.41
2022-08-27T03:54:13.436Z,18.46
2022-08-27T03:56:41.512Z,18.43
2022-08-27T03:59:07.829Z,18.35
2022-08-27T04:01:34.434Z,18.26
2022-08-27T04:04:00.819Z,18.24
2022-08-27T04:06:28.189Z,18.29
2022-08-27T04:08:54.530Z,18.25
2022-08-27T04:11:22.080Z,18.28
2022-08-27T04:13:48.455Z,18.32
2022-08-27T04:16:14.854Z,18.41
2022-08-27T04:18:41.275Z,18.47
2022-08-27T04:21:08.867Z,18.36
2022-08-27T04:23:35.194Z,18.36
2022-08-27T04:26:05.125Z,18.41
2022-08-27T04:28:35.208Z,18.44
2022-08-27T04:31:05.096Z,18.44
2022-08-27T04:33:32.449Z,18.31
2022-08-27T04:36:02.569Z,18.43
2022-08-27T04:38:29.110Z,18.35
2022-08-27T04:41:14.184Z,18.46
2022-08-27T04:43:40.551Z,18.38
2022-08-27T04:46:07.219Z,18.37
2022-08-27T04:48:33.560Z,18.38
2022-08-27T04:51:00.321Z,18.40
2022-08-27T04:53:26.785Z,18.42
2022-08-27T04:55:54.451Z,18.48
2022-08-27T04:58:21.444Z,18.50
2022-08-27T05:00:49.551Z,18.51
2022-08-27T05:03:16.845Z,18.52
2022-08-27T05:05:43.820Z,18.63
2022-08-27T05:08:13.050Z,18.63
2022-08-27T05:10:43.425Z,18.63
2022-08-27T05:13:09.993Z,18.66
2022-08-27T05:15:37.123Z,18.71
2022-08-27T05:18:03.812Z,18.72
2022-08-27T05:20:30.952Z,18.77
2022-08-27T05:22:57.316Z,18.75
2022-08-27T05:25:24.227Z,18.85
2022-08-27T05:27:50.555Z,18.84
2022-08-27T05:30:16.948Z,18.80
2022-08-27T05:32:43.375Z,18.83
2022-08-27T05:35:13.939Z,18.87
2022-08-27T05:37:42.839Z,18.90
2022-08-27T05:40:09.601Z,18.95
2022-08-27T05:42:35.996Z,18.99
2022-08-27T05:45:02.346Z,19.03
2022-08-27T05:47:29.275Z,19.06
2022-08-27T05:49:55.636Z,18.99
2022-08-27T05:52:21.969Z,18.97
2022-08-27T05:54:48.349Z,18.98
2022-08-27T05:57:14.703Z,19.02
2022-08-27T05:59:59.772Z,19.05
2022-08-27T06:02:26.134Z,19.08
2022-08-27T06:04:53.502Z,19.06
2022-08-27T06:07:20.016Z,19.05
2022-08-27T06:09:46.413Z,19.02
2022-08-27T06:12:12.721Z,19.08
2022-08-27T06:14:39.100Z,19.10
2022-08-27T06:17:06.400Z,19.14
2022-08-27T06:19:34.750Z,19.18
2022-08-27T06:22:09.834Z,19.18
2022-08-27T06:24:38.987Z,19.18
2022-08-27T06:27:05.571Z,19.21
2022-08-27T06:29:33.420Z,19.26
2022-08-27T06:31:59.763Z,19.31
2022-08-27T06:34:26.193Z,19.32
2022-08-27T06:36:53.569Z,19.32
2022-08-27T06:39:19.950Z,19.39
2022-08-27T06:41:49.571Z,19.44
2022-08-27T06:44:15.884Z,19.48
2022-08-27T06:46:42.886Z,19.51
2022-08-27T06:49:09.935Z,19.56
2022-08-27T06:51:38.164Z,19.55
2022-08-27T06:54:06.625Z,19.56
2022-08-27T06:56:33.317Z,19.53
2022-08-27T06:59:01.594Z,19.57
2022-08-27T07:01:30.451Z,19.63
2022-08-27T07:03:58.421Z,19.58
2022-08-27T07:06:29.293Z,19.56
2022-08-27T07:08:56.985Z,19.54
2022-08-27T07:11:23.669Z,19.54
2022-08-27T07:13:50.105Z,19.53
2022-08-27T07:16:17.794Z,19.56
2022-08-27T07:18:44.746Z,19.42
2022-08-27T07:21:12.162Z,19.38
2022-08-27T07:23:39.817Z,19.35
2022-08-27T07:26:08.135Z,19.31
2022-08-27T07:28:34.440Z,19.32
2022-08-27T07:31:00.963Z,19.31
2022-08-27T07:33:27.385Z,19.30
2022-08-27T07:35:53.823Z,19.30
2022-08-27T07:38:20.143Z,19.24
2022-08-27T07:40:46.812Z,19.21
2022-08-27T07:43:31.750Z,19.19
2022-08-27T07:46:00.942Z,19.20
2022-08-27T07:48:27.933Z,19.15
2022-08-27T07:50:54.335Z,19.13
2022-08-27T07:53:21.355Z,19.12
2022-08-27T07:55:47.748Z,19.14
2022-08-27T07:58:18.440Z,19.14
2022-08-27T08:00:45.246Z,19.13
2022-08-27T08:03:12.283Z,19.17
2022-08-27T08:05:43.163Z,19.12
2022-08-27T08:08:09.815Z,19.20
2022-08-27T08:10:37.194Z,19.18
2022-08-27T08:13:03.891Z,19.20
2022-08-27T08:15:30.238Z,19.21
2022-08-27T08:17:56.555Z,19.24
2022-08-27T08:20:36.009Z,19.23
2022-08-27T08:23:09.776Z,19.22
2022-08-27T08:25:38.741Z,19.23
2022-08-27T08:28:05.222Z,19.31
2022-08-27T08:30:34.444Z,19.19
2022-08-27T08:33:01.872Z,19.14
2022-08-27T08:35:28.220Z,19.16
2022-08-27T08:38:01.480Z,19.12
2022-08-27T08:40:33.792Z,19.14
2022-08-27T08:43:00.529Z,19.17
2022-08-27T08:45:29.594Z,19.16
2022-08-27T08:48:04.982Z,19.15
2022-08-27T08:50:36.262Z,19.16
2022-08-27T08:53:07.259Z,19.07
2022-08-27T08:55:39.465Z,19.00
2022-08-27T08:58:26.082Z,18.99
2022-08-27T09:01:00.410Z,19.03
2022-08-27T09:03:27.703Z,19.01
2022-08-27T09:06:01.672Z,18.98
2022-08-27T09:08:41.915Z,18.98
2022-08-27T09:11:14.506Z,18.97
2022-08-27T09:13:43.302Z,19.01
2022-08-27T09:16:10.129Z,19.00
2022-08-27T09:18:37.527Z,19.02
2022-08-27T09:21:10.635Z,19.03
2022-08-27T09:23:40.356Z,18.99
2022-08-27T09:26:16.973Z,18.96
2022-08-27T09:29:02.178Z,18.99
2022-08-27T09:31:29.768Z,18.98
2022-08-27T09:33:57.214Z,18.99
2022-08-27T09:36:24.122Z,19.00
2022-08-27T09:38:58.099Z,19.00
2022-08-27T09:41:26.638Z,18.98
2022-08-27T09:44:00.410Z,19.00
2022-08-27T09:46:27.422Z,19.03
2022-08-27T09:48:53.951Z,19.01
2022-08-27T09:51:22.771Z,18.97
2022-08-27T09:53:53.864Z,18.93
2022-08-27T09:56:23.269Z,18.93
2022-08-27T09:59:01.677Z,18.86
2022-08-27T10:01:29.719Z,18.88
2022-08-27T10:04:10.006Z,18.88
2022-08-27T10:06:37.966Z,18.91
2022-08-27T10:09:14.791Z,18.90
2022-08-27T10:11:44.740Z,18.94
2022-08-27T10:14:16.215Z,18.95
2022-08-27T10:17:11.199Z,18.90
2022-08-27T10:19:46.640Z,18.92
2022-08-27T10:22:15.985Z,18.88
2022-08-27T10:24:54.058Z,18.87
2022-08-27T10:27:27.224Z,18.85
2022-08-27T10:30:00.892Z,18.84
2022-08-27T10:32:44.035Z,18.87
2022-08-27T10:35:21.788Z,18.90
2022-08-27T10:37:55.578Z,18.91
2022-08-27T10:40:27.313Z,18.89
2022-08-27T10:43:00.700Z,18.90
2022-08-27T10:45:36.136Z,18.92
2022-08-27T10:48:06.573Z,18.90
2022-08-27T10:50:48.966Z,18.88
2022-08-27T10:53:53.963Z,18.93
2022-08-27T10:56:30.345Z,18.99
2022-08-27T10:58:56.640Z,18.90
2022-08-27T11:01:30.235Z,18.95
2022-08-27T11:04:00.936Z,18.99
2022-08-27T11:06:39.252Z,18.93
2022-08-27T11:09:08.386Z,18.92
2022-08-27T11:14:45.318Z,18.97
2022-08-27T11:17:18.210Z,19.00
2022-08-27T11:19:50.049Z,18.96
2022-08-27T11:22:26.174Z,18.98
2022-08-27T11:25:22.098Z,19.01
2022-08-27T11:27:51.227Z,19.11
2022-08-27T11:30:28.908Z,19.23
2022-08-27T11:32:58.105Z,19.29
2022-08-27T11:35:34.786Z,19.37
2022-08-27T11:38:12.599Z,19.37
2022-08-27T11:40:49.159Z,19.42
2022-08-27T11:43:20.975Z,19.40
2022-08-27T11:46:03.553Z,19.41
2022-08-27T11:48:31.593Z,19.42
2022-08-27T11:51:01.422Z,19.45
2022-08-27T11:53:33.431Z,19.36
2022-08-27T11:56:10.201Z,19.35
2022-08-27T11:58:53.484Z,19.38
2022-08-27T12:01:26.894Z,19.33
2022-08-27T12:04:06.245Z,19.40
2022-08-27T12:06:43.663Z,19.40
2022-08-27T12:09:15.798Z,19.43
2022-08-27T12:11:48.700Z,19.50
2022-08-27T12:14:33.776Z,19.52
2022-08-27T12:17:12.329Z,19.56
2022-08-27T12:19:45.368Z,19.46
2022-08-27T12:22:30.190Z,19.54
2022-08-27T12:24:58.024Z,19.53
2022-08-27T12:27:24.538Z,19.52
2022-08-27T12:29:53.916Z,19.57
2022-08-27T12:32:20.303Z,19.68
2022-08-27T12:35:08.548Z,19.77
2022-08-27T12:37:36.765Z,19.99
2022-08-27T12:40:15.755Z,20.17
2022-08-27T12:42:46.318Z,20.27
2022-08-27T12:45:24.470Z,20.47
2022-08-27T12:47:51.546Z,20.33
2022-08-27T12:50:36.231Z,20.36
2022-08-27T12:53:12.616Z,20.25
2022-08-27T12:55:44.801Z,20.26
2022-08-27T12:58:15.639Z,20.23
2022-08-27T13:01:01.062Z,20.19
2022-08-27T13:03:32.567Z,20.16
2022-08-27T13:06:01.497Z,20.13
2022-08-27T13:08:31.699Z,20.11
2022-08-27T13:11:08.220Z,20.14
2022-08-27T13:13:39.798Z,20.11
2022-08-27T13:16:06.315Z,20.09
2022-08-27T13:18:32.929Z,20.09
2022-08-27T13:21:04.772Z,20.13
2022-08-27T13:23:31.284Z,20.32
2022-08-27T13:26:07.952Z,20.50
2022-08-27T13:28:35.549Z,20.43
2022-08-27T13:31:02.884Z,20.38
2022-08-27T13:33:35.431Z,20.48
2022-08-27T13:36:03.724Z,20.37
2022-08-27T13:38:35.000Z,20.29
2022-08-27T13:41:18.099Z,20.18
2022-08-27T13:43:45.378Z,20.10
2022-08-27T13:46:13.534Z,20.13
2022-08-27T13:48:41.296Z,20.16
2022-08-27T13:51:09.137Z,20.16
2022-08-27T13:53:54.791Z,20.16
2022-08-27T13:56:28.773Z,20.05
2022-08-27T13:58:55.448Z,20.02
2022-08-27T14:01:26.536Z,20.02
2022-08-27T14:03:57.974Z,20.00
2022-08-27T14:06:25.560Z,19.98
2022-08-27T14:08:59.034Z,19.91
2022-08-27T14:11:27.322Z,19.94
2022-08-27T14:13:55.755Z,19.93
2022-08-27T14:16:22.165Z,19.94
2022-08-27T14:18:59.395Z,20.01
2022-08-27T14:21:26.108Z,20.08
2022-08-27T14:23:52.412Z,20.11
2022-08-27T14:26:18.872Z,20.13
2022-08-27T14:28:45.423Z,20.18
2022-08-27T14:31:13.312Z,20.24
2022-08-27T14:33:39.941Z,20.30
2022-08-27T14:36:07.046Z,20.37
2022-08-27T14:38:34.602Z,20.43
2022-08-27T14:41:00.906Z,20.36
2022-08-27T14:43:27.231Z,20.35
2022-08-27T14:45:53.887Z,20.41
2022-08-27T14:48:21.824Z,20.49
2022-08-27T14:50:55.299Z,20.46
2022-08-27T14:53:21.649Z,20.49
2022-08-27T14:55:52.052Z,20.50
2022-08-27T14:58:18.720Z,20.42
2022-08-27T15:00:45.104Z,20.33
2022-08-27T15:03:11.623Z,20.31
2022-08-27T15:05:37.998Z,20.30
2022-08-27T15:08:04.453Z,20.30
2022-08-27T15:10:31.317Z,20.18
2022-08-27T15:12:58.065Z,20.23
2022-08-27T15:15:24.463Z,20.16
2022-08-27T15:17:50.852Z,20.23
2022-08-27T15:20:20.045Z,20.27
2022-08-27T15:22:47.939Z,20.29
2022-08-27T15:25:15.197Z,20.26
2022-08-27T15:27:41.937Z,20.26
2022-08-27T15:30:10.634Z,20.27
2022-08-27T15:32:39.508Z,20.25
2022-08-27T15:35:08.332Z,20.17
2022-08-27T15:37:35.659Z,20.11
2022-08-27T15:40:02.280Z,20.13
2022-08-27T15:42:32.927Z,20.15
2022-08-27T15:44:59.372Z,20.07
2022-08-27T15:47:25.693Z,20.07
2022-08-27T15:49:52.047Z,20.04
2022-08-27T15:52:20.451Z,20.05
2022-08-27T15:54:48.935Z,19.92
2022-08-27T15:57:15.846Z,19.96
2022-08-27T15:59:42.195Z,20.05
2022-08-27T16:02:14.792Z,19.96
2022-08-27T16:04:41.257Z,19.97
2022-08-27T16:07:07.612Z,20.02
2022-08-27T16:09:33.929Z,20.00
2022-08-27T16:12:00.955Z,20.00
2022-08-27T16:14:27.291Z,20.03
2022-08-27T16:16:53.670Z,20.00
2022-08-27T16:19:20.594Z,19.98
2022-08-27T16:21:47.298Z,19.97
2022-08-27T16:24:13.667Z,19.98
2022-08-27T16:26:40.053Z,20.02
2022-08-27T16:29:06.833Z,20.04
2022-08-27T16:31:34.925Z,20.03
2022-08-27T16:34:02.256Z,20.04
2022-08-27T16:36:30.487Z,20.06
2022-08-27T16:38:56.962Z,20.10
2022-08-27T16:41:23.351Z,20.10
2022-08-27T16:43:49.973Z,20.11
2022-08-27T16:46:16.527Z,20.11
2022-08-27T16:49:01.832Z,20.07
2022-08-27T16:51:34.453Z,19.99
2022-08-27T16:54:04.934Z,19.97
2022-08-27T16:56:36.388Z,19.94
2022-08-27T16:59:04.392Z,19.94
2022-08-27T17:01:31.676Z,19.94
2022-08-27T17:04:08.799Z,19.94
2022-08-27T17:06:39.600Z,19.95
2022-08-27T17:09:06.423Z,19.88
2022-08-27T17:11:34.679Z,19.89
2022-08-27T17:14:04.655Z,19.92
2022-08-27T17:16:32.965Z,19.92
2022-08-27T17:18:59.936Z,19.95
2022-08-27T17:21:29.881Z,19.91
2022-08-27T17:23:59.182Z,19.90
2022-08-27T17:26:26.141Z,19.85
2022-08-27T17:28:52.585Z,19.92
2022-08-27T17:31:27.877Z,19.92
2022-08-27T17:33:54.998Z,19.89
2022-08-27T17:36:22.280Z,19.91
2022-08-27T17:38:49.265Z,19.89
2022-08-27T17:41:20.549Z,19.92
2022-08-27T17:43:46.897Z,19.88
2022-08-27T17:46:13.746Z,19.87
2022-08-27T17:48:40.717Z,19.88
2022-08-27T17:51:08.696Z,19.87
2022-08-27T17:53:35.032Z,19.84
2022-08-27T17:56:01.463Z,19.78
2022-08-27T17:58:27.768Z,19.76
2022-08-27T18:00:54.236Z,19.77
2022-08-27T18:03:21.360Z,19.75
2022-08-27T18:05:49.418Z,19.75
2022-08-27T18:08:15.902Z,19.74
2022-08-27T18:10:43.068Z,19.72
2022-08-27T18:13:09.881Z,19.75
2022-08-27T18:15:38.644Z,19.65
2022-08-27T18:18:05.514Z,19.57
2022-08-27T18:20:32.882Z,19.49
2022-08-27T18:22:59.983Z,19.35
2022-08-27T18:25:29.087Z,19.31
2022-08-27T18:27:58.641Z,19.27
2022-08-27T18:30:25.377Z,19.20
2022-08-27T18:32:51.972Z,19.16
2022-08-27T18:35:18.317Z,19.11
2022-08-27T18:37:44.990Z,19.09
2022-08-27T18:40:12.329Z,19.05
2022-08-27T18:42:40.908Z,19.04
2022-08-27T18:45:09.035Z,19.01
2022-08-27T18:47:35.398Z,19.02
2022-08-27T18:50:01.768Z,18.97
2022-08-27T18:52:28.145Z,18.87
2022-08-27T18:54:54.502Z,18.77
2022-08-27T18:57:20.898Z,18.73
2022-08-27T18:59:47.192Z,18.70
2022-08-27T19:02:16.280Z,18.64
2022-08-27T19:04:42.963Z,18.62
2022-08-27T19:07:09.341Z,18.63
2022-08-27T19:09:35.669Z,18.67
2022-08-27T19:12:02.096Z,18.66
2022-08-27T19:14:28.864Z,18.69
2022-08-27T19:16:56.100Z,18.65
2022-08-27T19:19:24.802Z,18.66
2022-08-27T19:21:51.890Z,18.69
2022-08-27T19:24:21.236Z,18.71
2022-08-27T19:26:48.591Z,18.73
2022-08-27T19:29:14.913Z,18.78
2022-08-27T19:31:41.324Z,18.76
2022-08-27T19:34:08.225Z,18.75
2022-08-27T19:36:36.254Z,18.74
2022-08-27T19:39:03.423Z,18.76
2022-08-27T19:41:29.851Z,18.75
2022-08-27T19:43:56.341Z,18.75
2022-08-27T19:46:23.831Z,18.74
2022-08-27T19:48:50.626Z,18.75
2022-08-27T19:51:16.967Z,18.74
2022-08-27T19:53:43.459Z,18.73
2022-08-27T19:56:10.625Z,18.75
2022-08-27T19:58:37.134Z,18.76
2022-08-27T20:01:03.503Z,18.79
2022-08-27T20:03:29.888Z,18.77
2022-08-27T20:05:56.302Z,18.73
2022-08-27T20:08:22.789Z,18.69
2022-08-27T20:10:49.102Z,18.76
2022-08-27T20:13:15.502Z,18.71
2022-08-27T20:15:42.395Z,18.71
2022-08-27T20:18:09.060Z,18.69
2022-08-27T20:20:35.557Z,18.71
2022-08-27T20:23:03.706Z,18.70
2022-08-27T20:25:30.028Z,18.67
2022-08-27T20:27:56.394Z,18.70
2022-08-27T20:30:24.441Z,18.70
2022-08-27T20:32:50.952Z,18.70
2022-08-27T20:35:18.061Z,18.68
2022-08-27T20:37:46.086Z,18.68
2022-08-27T20:40:14.733Z,18.67
2022-08-27T20:42:41.248Z,18.70
2022-08-27T20:45:11.950Z,18.70
2022-08-27T20:47:39.561Z,18.68
2022-08-27T20:50:06.079Z,18.70
2022-08-27T20:52:32.527Z,18.68
2022-08-27T20:54:58.850Z,18.71
2022-08-27T20:57:25.192Z,18.68
2022-08-27T21:00:10.252Z,18.67
2022-08-27T21:02:36.913Z,18.68
2022-08-27T21:05:08.646Z,18.68
2022-08-27T21:07:35.009Z,18.64
2022-08-27T21:10:01.511Z,18.64
2022-08-27T21:12:28.916Z,18.59
2022-08-27T21:14:56.237Z,18.58
2022-08-27T21:17:24.356Z,18.58
2022-08-27T21:19:50.902Z,18.56
2022-08-27T21:22:17.285Z,18.51
2022-08-27T21:24:43.676Z,18.44
2022-08-27T21:27:10.015Z,18.44
2022-08-27T21:29:36.802Z,18.40
2022-08-27T21:32:03.291Z,18.40
2022-08-27T21:34:31.007Z,18.41
2022-08-27T21:36:57.861Z,18.39
2022-08-27T21:39:24.293Z,18.34
2022-08-27T21:41:50.604Z,18.33
2022-08-27T21:44:16.932Z,18.29
2022-08-27T21:46:43.318Z,18.25
2022-08-27T21:49:09.657Z,18.21
2022-08-27T21:51:36.157Z,18.17
2022-08-27T21:54:02.468Z,18.20
2022-08-27T21:56:31.457Z,18.16
2022-08-27T21:58:57.799Z,18.15
2022-08-27T22:01:24.174Z,18.16
2022-08-27T22:03:51.001Z,18.16
2022-08-27T22:06:18.428Z,18.12
2022-08-27T22:08:45.191Z,18.12
2022-08-27T22:11:11.922Z,18.12
2022-08-27T22:13:38.468Z,18.11
2022-08-27T22:16:04.957Z,18.12
2022-08-27T22:18:31.594Z,18.06
2022-08-27T22:20:59.403Z,18.08
2022-08-27T22:23:26.592Z,18.02
2022-08-27T22:25:53.128Z,18.02
2022-08-27T22:28:19.947Z,18.00
2022-08-27T22:30:46.412Z,18.01
2022-08-27T22:33:13.257Z,17.92
2022-08-27T22:35:39.721Z,17.88
2022-08-27T22:38:06.528Z,17.85
2022-08-27T22:40:33.452Z,17.80
2022-08-27T22:43:00.322Z,17.77
2022-08-27T22:45:27.318Z,17.77
2022-08-27T22:47:54.771Z,17.75
2022-08-27T22:50:21.592Z,17.72
2022-08-27T22:52:48.574Z,17.70
2022-08-27T22:55:18.900Z,17.69
2022-08-27T22:57:48.317Z,17.63
2022-08-27T23:00:17.883Z,17.63
2022-08-27T23:02:44.297Z,17.64
2022-08-27T23:05:10.806Z,17.59
2022-08-27T23:07:37.540Z,17.59
2022-08-27T23:10:06.030Z,17.55
2022-08-27T23:12:34.153Z,17.56
2022-08-27T23:15:06.384Z,17.57
2022-08-27T23:17:32.706Z,17.54
2022-08-27T23:19:59.087Z,17.54
2022-08-27T23:22:25.378Z,17.53
2022-08-27T23:25:10.542Z,17.54
2022-08-27T23:27:36.851Z,17.53
2022-08-27T23:30:04.105Z,17.51
2022-08-27T23:32:30.472Z,17.49
2022-08-27T23:34:57.064Z,17.52
2022-08-27T23:37:23.901Z,17.50
2022-08-27T23:39:50.274Z,17.48
2022-08-27T23:42:18.575Z,17.45
2022-08-27T23:44:45.846Z,17.45
2022-08-27T23:47:12.304Z,17.49
2022-08-27T23:49:39.060Z,17.51
2022-08-27T23:52:05.811Z,17.45
2022-08-27T23:54:32.661Z,17.43
2022-08-27T23:56:58.964Z,17.45
2022-08-27T23:59:30.286Z,17.45
